createdAt,value
2022-08-17T00:03:29.695Z,3.60
2022-08-17T00:08:35.658Z,3.72
2022-08-17T00:13:41.942Z,5.20
2022-08-17T00:18:53.754Z,3.58
2022-08-17T00:23:54.180Z,3.58
2022-08-17T00:29:00.541Z,3.81
2022-08-17T00:34:06.857Z,3.75
2022-08-17T00:39:13.175Z,3.67
2022-08-17T00:44:19.498Z,3.53
2022-08-17T00:49:25.810Z,3.62
2022-08-17T00:54:32.066Z,5.49
2022-08-17T00:59:38.326Z,3.57
2022-08-17T01:04:44.629Z,3.53
2022-08-17T01:09:51.163Z,3.64
2022-08-17T01:14:57.487Z,5.37
2022-08-17T01:20:03.735Z,3.65
2022-08-17T01:25:10.002Z,5.46
2022-08-17T01:30:58.639Z,5.26
2022-08-17T01:35:22.038Z,3.50
2022-08-17T01:40:28.285Z,3.90
2022-08-17T01:45:34.628Z,4.01
2022-08-17T01:50:41.177Z,5.87
2022-08-17T01:55:47.503Z,4.18
2022-08-17T02:00:59.964Z,6.49
2022-08-17T02:05:59.651Z,4.00
2022-08-17T02:11:06.082Z,3.75
2022-08-17T02:16:12.012Z,3.79
2022-08-17T02:21:18.303Z,3.80
2022-08-17T02:26:26.068Z,3.95
2022-08-17T02:31:30.441Z,3.88
2022-08-17T02:36:36.749Z,4.01
2022-08-17T02:41:42.997Z,5.91
2022-08-17T02:46:49.372Z,4.00
2022-08-17T02:51:55.705Z,3.70
2022-08-17T02:57:01.932Z,5.01
2022-08-17T03:02:08.386Z,3.78
2022-08-17T03:07:15.634Z,3.85
2022-08-17T03:12:22.076Z,3.73
2022-08-17T03:17:28.339Z,5.71
2022-08-17T03:22:36.694Z,3.93
2022-08-17T03:27:42.145Z,4.00
2022-08-17T03:32:46.373Z,4.45
2022-08-17T03:38:00.070Z,4.10
2022-08-17T03:42:58.569Z,3.35
2022-08-17T03:48:10.248Z,3.47
2022-08-17T03:53:27.249Z,4.09
2022-08-17T03:58:18.242Z,3.72
2022-08-17T04:03:19.353Z,3.77
2022-08-17T04:08:39.766Z,3.52
2022-08-17T04:13:26.627Z,3.60
2022-08-17T04:18:52.903Z,3.58
2022-08-17T04:23:44.979Z,3.28
2022-08-17T04:28:45.388Z,3.48
2022-08-17T04:38:51.229Z,3.62
2022-08-17T04:43:57.471Z,3.39
2022-08-17T04:49:03.783Z,3.20
2022-08-17T04:54:10.084Z,3.27
2022-08-17T04:59:16.317Z,3.42
2022-08-17T05:04:34.539Z,3.39
2022-08-17T05:09:29.337Z,3.32
2022-08-17T05:14:35.580Z,3.77
2022-08-17T05:19:41.935Z,3.60
2022-08-17T05:24:55.519Z,3.34
2022-08-17T05:29:54.052Z,3.21
2022-08-17T05:35:00.505Z,3.27
2022-08-17T05:40:06.687Z,3.06
2022-08-17T05:45:12.893Z,3.60
2022-08-17T05:50:22.106Z,3.40
2022-08-17T05:55:25.271Z,3.18
2022-08-17T06:00:31.694Z,2.71
2022-08-17T06:05:37.854Z,2.95
2022-08-17T06:10:45.194Z,3.19
2022-08-17T06:15:51.517Z,2.82
2022-08-17T06:20:58.849Z,3.20
2022-08-17T06:26:06.137Z,2.97
2022-08-17T06:31:12.576Z,2.96
2022-08-17T06:36:18.896Z,2.57
2022-08-17T06:41:25.197Z,2.54
2022-08-17T06:46:31.508Z,2.37
2022-08-17T06:51:37.819Z,2.35
2022-08-17T06:56:53.495Z,2.38
2022-08-17T07:01:51.008Z,2.23
2022-08-17T07:06:57.382Z,2.08
2022-08-17T07:12:03.618Z,2.15
2022-08-17T07:17:09.932Z,1.99
2022-08-17T07:22:16.215Z,2.02
2022-08-17T07:27:22.581Z,2.02
2022-08-17T07:32:28.865Z,2.19
2022-08-17T07:37:35.077Z,2.95
2022-08-17T07:42:46.567Z,1.99
2022-08-17T07:47:47.183Z,2.23
2022-08-17T07:52:53.482Z,2.08
2022-08-17T07:57:59.709Z,2.22
2022-08-17T08:03:05.996Z,2.49
2022-08-17T08:08:12.427Z,2.28
2022-08-17T08:13:18.334Z,2.14
2022-08-17T08:18:53.911Z,2.16
2022-08-17T08:23:31.740Z,2.40
2022-08-17T08:28:38.058Z,2.95
2022-08-17T08:33:44.460Z,2.29
2022-08-17T08:38:53.711Z,2.66
2022-08-17T08:44:00.019Z,2.61
2022-08-17T08:49:12.249Z,2.27
2022-08-17T08:54:14.036Z,2.47
2022-08-17T08:59:21.560Z,2.45
2022-08-17T09:04:27.945Z,2.22
2022-08-17T09:09:34.246Z,3.00
2022-08-17T09:14:45.256Z,3.58
2022-08-17T09:19:46.637Z,4.01
2022-08-17T09:24:52.990Z,4.26
2022-08-17T09:29:59.292Z,4.11
2022-08-17T09:35:05.790Z,4.69
2022-08-17T09:40:13.893Z,4.81
2022-08-17T09:45:20.280Z,4.67
2022-08-17T09:51:03.486Z,5.22
2022-08-17T09:55:32.617Z,4.91
2022-08-17T10:00:38.824Z,4.77
2022-08-17T10:05:45.163Z,5.11
2022-08-17T10:10:52.450Z,5.08
2022-08-17T10:15:57.390Z,4.98
2022-08-17T10:21:04.681Z,5.40
2022-08-17T10:26:11.061Z,5.52
2022-08-17T10:31:34.416Z,5.75
2022-08-17T10:36:24.417Z,6.05
2022-08-17T10:41:30.703Z,6.21
2022-08-17T10:46:36.999Z,6.51
2022-08-17T10:51:43.217Z,6.51
2022-08-17T10:56:49.614Z,6.79
2022-08-17T11:01:55.909Z,6.46
2022-08-17T11:07:03.313Z,6.63
2022-08-17T11:12:08.669Z,6.57
2022-08-17T11:17:14.965Z,6.71
2022-08-17T11:22:21.420Z,6.84
2022-08-17T11:27:27.833Z,7.15
2022-08-17T11:32:35.480Z,7.09
2022-08-17T11:37:42.626Z,6.76
2022-08-17T11:42:49.015Z,7.23
2022-08-17T11:48:23.798Z,7.08
2022-08-17T11:53:03.002Z,7.45
2022-08-17T11:58:09.506Z,7.50
2022-08-17T12:03:20.255Z,7.52
2022-08-17T12:08:16.476Z,11.04
2022-08-17T12:13:22.851Z,7.59
2022-08-17T12:18:30.215Z,7.65
2022-08-17T12:23:36.747Z,7.41
2022-08-17T12:28:43.148Z,7.91
2022-08-17T12:33:50.854Z,8.05
2022-08-17T12:38:57.375Z,7.06
2022-08-17T12:44:03.288Z,7.98
2022-08-17T12:49:10.708Z,7.94
2022-08-17T12:54:17.120Z,6.78
2022-08-17T12:59:30.083Z,7.86
2022-08-17T13:04:32.161Z,7.57
2022-08-17T13:09:40.260Z,7.83
2022-08-17T13:14:45.676Z,8.42
2022-08-17T13:19:53.292Z,7.84
2022-08-17T13:24:59.738Z,8.47
2022-08-17T13:30:06.211Z,7.40
2022-08-17T13:35:28.275Z,8.46
2022-08-17T13:40:20.325Z,8.27
2022-08-17T13:45:35.695Z,8.21
2022-08-17T13:50:33.804Z,9.15
2022-08-17T13:55:40.208Z,8.82
2022-08-17T14:00:50.694Z,8.82
2022-08-17T14:05:47.873Z,8.68
2022-08-17T14:10:54.452Z,7.92
2022-08-17T14:16:01.045Z,8.83
2022-08-17T14:21:07.425Z,8.11
2022-08-17T14:26:13.981Z,8.32
2022-08-17T14:31:22.134Z,7.86
2022-08-17T14:36:27.131Z,7.57
2022-08-17T14:41:38.064Z,6.67
2022-08-17T14:46:34.538Z,7.42
2022-08-17T14:51:43.853Z,7.49
2022-08-17T14:56:46.642Z,6.69
2022-08-17T15:01:52.599Z,7.96
2022-08-17T15:07:00.122Z,7.11
2022-08-17T15:12:10.667Z,7.26
2022-08-17T15:17:16.202Z,7.39
2022-08-17T15:22:22.772Z,7.30
2022-08-17T15:27:32.603Z,6.94
2022-08-17T15:32:35.637Z,6.87
2022-08-17T15:37:44.427Z,6.63
2022-08-17T15:42:50.785Z,6.95
2022-08-17T15:48:01.364Z,7.00
2022-08-17T15:53:06.764Z,6.54
2022-08-17T15:58:13.056Z,5.94
2022-08-17T16:03:58.422Z,6.77
2022-08-17T16:08:25.290Z,5.90
2022-08-17T16:13:31.535Z,6.28
2022-08-17T16:18:38.019Z,6.50
2022-08-17T16:23:44.250Z,6.20
2022-08-17T16:28:50.529Z,6.67
2022-08-17T16:34:16.381Z,6.05
2022-08-17T16:39:06.505Z,5.79
2022-08-17T16:44:15.499Z,7.28
2022-08-17T16:49:35.921Z,7.53
2022-08-17T16:54:24.624Z,6.27
2022-08-17T16:59:40.936Z,6.02
2022-08-17T17:04:36.789Z,6.21
2022-08-17T17:09:48.206Z,6.55
2022-08-17T17:14:44.201Z,6.86
2022-08-17T17:19:50.710Z,6.99
2022-08-17T17:24:57.020Z,6.18
2022-08-17T17:30:03.333Z,6.30
2022-08-17T17:35:09.619Z,6.50
2022-08-17T17:40:15.932Z,6.50
2022-08-17T17:45:22.277Z,6.30
2022-08-17T17:50:28.637Z,6.52
2022-08-17T17:55:36.040Z,5.94
2022-08-17T18:00:42.031Z,6.56
2022-08-17T18:05:48.318Z,6.18
2022-08-17T18:10:56.077Z,6.13
2022-08-17T18:16:01.824Z,6.28
2022-08-17T18:21:08.140Z,5.86
2022-08-17T18:26:14.486Z,6.29
2022-08-17T18:31:20.245Z,6.41
2022-08-17T18:36:26.484Z,6.23
2022-08-17T18:41:32.776Z,5.84
2022-08-17T18:46:39.025Z,6.21
2022-08-17T18:51:45.325Z,6.12
2022-08-17T18:56:51.623Z,6.17
2022-08-17T19:01:59.959Z,6.20
2022-08-17T19:07:03.721Z,6.48
2022-08-17T19:12:10.034Z,6.40
2022-08-17T19:17:16.347Z,6.37
2022-08-17T19:22:28.936Z,6.72
2022-08-17T19:27:34.689Z,6.34
2022-08-17T19:32:35.391Z,6.06
2022-08-17T19:37:41.630Z,6.21
2022-08-17T19:42:47.887Z,6.22
2022-08-17T19:47:56.473Z,6.47
2022-08-17T19:53:00.159Z,6.48
2022-08-17T19:58:06.588Z,6.53
2022-08-17T20:03:16.643Z,6.54
2022-08-17T20:08:18.645Z,6.74
2022-08-17T20:13:32.836Z,6.76
2022-08-17T20:18:30.859Z,6.90
2022-08-17T20:23:37.126Z,7.22
2022-08-17T20:28:44.611Z,7.03
2022-08-17T20:33:50.914Z,7.17
2022-08-17T20:38:57.482Z,7.21
2022-08-17T20:44:05.078Z,7.30
2022-08-17T20:49:14.645Z,7.21
2022-08-17T20:54:17.553Z,7.39
2022-08-17T20:59:24.155Z,7.35
2022-08-17T21:04:31.600Z,8.62
2022-08-17T21:09:37.922Z,9.29
2022-08-17T21:14:44.423Z,9.12
2022-08-17T21:20:09.731Z,8.92
2022-08-17T21:24:56.571Z,7.95
2022-08-17T21:30:05.157Z,9.75
2022-08-17T21:35:09.071Z,9.27
2022-08-17T21:40:15.517Z,8.96
2022-08-17T21:45:21.776Z,8.64
2022-08-17T21:50:28.238Z,8.41
2022-08-17T21:55:35.171Z,9.44
2022-08-17T22:00:41.688Z,9.02
2022-08-17T22:05:47.979Z,7.94
2022-08-17T22:10:54.262Z,11.31
2022-08-17T22:16:01.916Z,7.45
2022-08-17T22:21:08.239Z,7.67
2022-08-17T22:26:14.705Z,7.79
2022-08-17T22:31:21.034Z,7.70
2022-08-17T22:36:29.111Z,8.11
2022-08-17T22:41:33.474Z,8.25
2022-08-17T22:46:39.967Z,8.00
2022-08-17T22:51:46.438Z,7.99
2022-08-17T22:56:52.782Z,8.01
2022-08-17T23:01:59.210Z,8.46
2022-08-17T23:07:05.728Z,8.47
2022-08-17T23:12:13.247Z,8.32
2022-08-17T23:17:19.631Z,8.50
2022-08-17T23:22:26.168Z,8.15
2022-08-17T23:27:33.584Z,8.16
2022-08-17T23:32:44.299Z,8.10
2022-08-17T23:37:46.936Z,8.63
2022-08-17T23:42:53.095Z,8.73
2022-08-17T23:47:59.010Z,9.28
2022-08-17T23:53:05.519Z,9.38
2022-08-17T23:58:11.857Z,9.48
